<?xml version="1.0" encoding="UTF-8" standalone="no" ?><gpx xmlns="http://www.topografix.com/GPX/1/1" xmlns:gpxx="http://www.garmin.com/xmlschemas/GpxExtensions/v3" xmlns:wptx1="http://www.garmin.com/xmlschemas/WaypointExtension/v1" xmlns:gpxtpx="http://www.garmin.com/xmlschemas/TrackPointExtension/v1" creator="GuideVTT.com" version="1.1" xmlns:xsi="http://www.w3.org/2001/XMLSchema-instance" xsi:schemaLocation="http://www.topografix.com/GPX/1/1 http://www.topografix.com/GPX/1/1/gpx.xsd http://www.garmin.com/xmlschemas/GpxExtensions/v3 http://www8.garmin.com/xmlschemas/GpxExtensionsv3.xsd http://www.garmin.com/xmlschemas/WaypointExtension/v1 http://www8.garmin.com/xmlschemas/WaypointExtensionv1.xsd http://www.garmin.com/xmlschemas/TrackPointExtension/v1 http://www.garmin.com/xmlschemas/TrackPointExtensionv1.xsd">
<metadata><link href="http://www.garmin.com"><text>Garmin International</text></link><time>2013-06-22T15:13:50Z</time></metadata>
<trk><name>2020-07-14_1005__20200714_1005.gpx</name><extensions><gpxx:TrackExtension><gpxx:DisplayColor>Cyan</gpxx:DisplayColor></gpxx:TrackExtension></extensions><trkseg>
<trkpt lat="45.3489918" lon="-1.1491621"><ele>24.46</ele><time>2026-4-28T12:35:0Z</time></trkpt>
<trkpt lat="45.3489766" lon="-1.1488822"><ele>18.26</ele><time>2026-4-28T12:35:3Z</time></trkpt>
<trkpt lat="45.3489658" lon="-1.1485868"><ele>16.72</ele><time>2026-4-28T12:35:6Z</time></trkpt>
<trkpt lat="45.3489628" lon="-1.1482905"><ele>15.70</ele><time>2026-4-28T12:35:9Z</time></trkpt>
<trkpt lat="45.3489496" lon="-1.1480154"><ele>14.98</ele><time>2026-4-28T12:35:12Z</time></trkpt>
<trkpt lat="45.3489483" lon="-1.1477121"><ele>16.23</ele><time>2026-4-28T12:35:15Z</time></trkpt>
<trkpt lat="45.3489331" lon="-1.1474476"><ele>17.76</ele><time>2026-4-28T12:35:18Z</time></trkpt>
<trkpt lat="45.3489206" lon="-1.1471897"><ele>15.82</ele><time>2026-4-28T12:35:21Z</time></trkpt>
<trkpt lat="45.3489062" lon="-1.1468808"><ele>15.46</ele><time>2026-4-28T12:35:24Z</time></trkpt>
<trkpt lat="45.3488964" lon="-1.1466082"><ele>14.92</ele><time>2026-4-28T12:35:27Z</time></trkpt>
<trkpt lat="45.3489135" lon="-1.1463297"><ele>13.09</ele><time>2026-4-28T12:35:30Z</time></trkpt>
<trkpt lat="45.3490011" lon="-1.1461019"><ele>14.34</ele><time>2026-4-28T12:35:33Z</time></trkpt>
<trkpt lat="45.3491848" lon="-1.1460980"><ele>15.69</ele><time>2026-4-28T12:35:36Z</time></trkpt>
<trkpt lat="45.3493740" lon="-1.1461804"><ele>12.73</ele><time>2026-4-28T12:35:39Z</time></trkpt>
<trkpt lat="45.3496007" lon="-1.1461734"><ele>12.35</ele><time>2026-4-28T12:35:42Z</time></trkpt>
<trkpt lat="45.3497894" lon="-1.1461827"><ele>12.98</ele><time>2026-4-28T12:35:45Z</time></trkpt>
<trkpt lat="45.3499827" lon="-1.1461395"><ele>15.81</ele><time>2026-4-28T12:35:48Z</time></trkpt>
<trkpt lat="45.3501649" lon="-1.1461085"><ele>16.79</ele><time>2026-4-28T12:35:51Z</time></trkpt>
<trkpt lat="45.3503781" lon="-1.1461152"><ele>16.01</ele><time>2026-4-28T12:35:54Z</time></trkpt>
<trkpt lat="45.3505774" lon="-1.1461077"><ele>15.59</ele><time>2026-4-28T12:35:57Z</time></trkpt>
<trkpt lat="45.3507807" lon="-1.1461201"><ele>16.81</ele><time>2026-4-28T12:36:0Z</time></trkpt>
<trkpt lat="45.3509693" lon="-1.1461260"><ele>17.73</ele><time>2026-4-28T12:36:3Z</time></trkpt>
<trkpt lat="45.3511657" lon="-1.1461253"><ele>16.73</ele><time>2026-4-28T12:36:6Z</time></trkpt>
<trkpt lat="45.3513410" lon="-1.1459961"><ele>16.05</ele><time>2026-4-28T12:36:9Z</time></trkpt>
<trkpt lat="45.3514711" lon="-1.1458112"><ele>15.77</ele><time>2026-4-28T12:36:12Z</time></trkpt>
<trkpt lat="45.3516482" lon="-1.1456632"><ele>16.87</ele><time>2026-4-28T12:36:15Z</time></trkpt>
<trkpt lat="45.3518362" lon="-1.1456280"><ele>17.41</ele><time>2026-4-28T12:36:18Z</time></trkpt>
<trkpt lat="45.3520220" lon="-1.1456871"><ele>16.05</ele><time>2026-4-28T12:36:21Z</time></trkpt>
<trkpt lat="45.3521732" lon="-1.1458480"><ele>13.60</ele><time>2026-4-28T12:36:24Z</time></trkpt>
<trkpt lat="45.3523603" lon="-1.1458682"><ele>15.38</ele><time>2026-4-28T12:36:27Z</time></trkpt>
<trkpt lat="45.3525599" lon="-1.1458356"><ele>16.03</ele><time>2026-4-28T12:36:30Z</time></trkpt>
<trkpt lat="45.3527751" lon="-1.1458216"><ele>15.46</ele><time>2026-4-28T12:36:33Z</time></trkpt>
<trkpt lat="45.3529720" lon="-1.1458057"><ele>11.25</ele><time>2026-4-28T12:36:36Z</time></trkpt>
<trkpt lat="45.3531900" lon="-1.1458247"><ele>9.84</ele><time>2026-4-28T12:36:39Z</time></trkpt>
<trkpt lat="45.3533890" lon="-1.1458175"><ele>12.44</ele><time>2026-4-28T12:36:42Z</time></trkpt>
<trkpt lat="45.3535936" lon="-1.1458143"><ele>14.29</ele><time>2026-4-28T12:36:45Z</time></trkpt>
<trkpt lat="45.3538114" lon="-1.1458277"><ele>16.47</ele><time>2026-4-28T12:36:48Z</time></trkpt>
<trkpt lat="45.3540002" lon="-1.1458016"><ele>17.47</ele><time>2026-4-28T12:36:51Z</time></trkpt>
<trkpt lat="45.3542074" lon="-1.1457936"><ele>18.07</ele><time>2026-4-28T12:36:54Z</time></trkpt>
<trkpt lat="45.3543870" lon="-1.1457652"><ele>18.30</ele><time>2026-4-28T12:36:57Z</time></trkpt>
<trkpt lat="45.3545682" lon="-1.1456592"><ele>15.53</ele><time>2026-4-28T12:37:0Z</time></trkpt>
<trkpt lat="45.3547571" lon="-1.1455566"><ele>17.99</ele><time>2026-4-28T12:37:3Z</time></trkpt>
<trkpt lat="45.3549734" lon="-1.1456420"><ele>18.64</ele><time>2026-4-28T12:37:6Z</time></trkpt>
<trkpt lat="45.3551966" lon="-1.1457377"><ele>17.61</ele><time>2026-4-28T12:37:9Z</time></trkpt>
<trkpt lat="45.3554058" lon="-1.1457576"><ele>13.90</ele><time>2026-4-28T12:37:12Z</time></trkpt>
<trkpt lat="45.3555835" lon="-1.1457017"><ele>9.42</ele><time>2026-4-28T12:37:15Z</time></trkpt>
<trkpt lat="45.3557945" lon="-1.1456463"><ele>8.21</ele><time>2026-4-28T12:37:18Z</time></trkpt>
<trkpt lat="45.3559884" lon="-1.1456477"><ele>10.66</ele><time>2026-4-28T12:37:21Z</time></trkpt>
<trkpt lat="45.3561785" lon="-1.1455873"><ele>10.14</ele><time>2026-4-28T12:37:24Z</time></trkpt>
<trkpt lat="45.3563752" lon="-1.1455820"><ele>8.28</ele><time>2026-4-28T12:37:27Z</time></trkpt>
<trkpt lat="45.3565670" lon="-1.1455524"><ele>7.08</ele><time>2026-4-28T12:37:30Z</time></trkpt>
<trkpt lat="45.3567937" lon="-1.1455665"><ele>8.56</ele><time>2026-4-28T12:37:33Z</time></trkpt>
<trkpt lat="45.3569973" lon="-1.1455601"><ele>10.77</ele><time>2026-4-28T12:37:36Z</time></trkpt>
<trkpt lat="45.3571842" lon="-1.1455829"><ele>11.05</ele><time>2026-4-28T12:37:39Z</time></trkpt>
<trkpt lat="45.3573740" lon="-1.1455186"><ele>11.91</ele><time>2026-4-28T12:37:42Z</time></trkpt>
<trkpt lat="45.3575640" lon="-1.1453614"><ele>12.95</ele><time>2026-4-28T12:37:45Z</time></trkpt>
<trkpt lat="45.3577825" lon="-1.1454016"><ele>13.79</ele><time>2026-4-28T12:37:48Z</time></trkpt>
<trkpt lat="45.3579659" lon="-1.1455709"><ele>12.64</ele><time>2026-4-28T12:37:51Z</time></trkpt>
<trkpt lat="45.3581468" lon="-1.1455338"><ele>11.26</ele><time>2026-4-28T12:37:54Z</time></trkpt>
<trkpt lat="45.3583556" lon="-1.1455014"><ele>8.11</ele><time>2026-4-28T12:37:57Z</time></trkpt>
<trkpt lat="45.3585522" lon="-1.1454701"><ele>7.96</ele><time>2026-4-28T12:38:0Z</time></trkpt>
<trkpt lat="45.3587432" lon="-1.1454560"><ele>10.39</ele><time>2026-4-28T12:38:3Z</time></trkpt>
<trkpt lat="45.3589578" lon="-1.1454538"><ele>9.72</ele><time>2026-4-28T12:38:6Z</time></trkpt>
<trkpt lat="45.3591692" lon="-1.1454032"><ele>12.34</ele><time>2026-4-28T12:38:9Z</time></trkpt>
<trkpt lat="45.3593729" lon="-1.1453929"><ele>12.18</ele><time>2026-4-28T12:38:12Z</time></trkpt>
<trkpt lat="45.3595791" lon="-1.1454095"><ele>12.57</ele><time>2026-4-28T12:38:15Z</time></trkpt>
<trkpt lat="45.3598123" lon="-1.1454069"><ele>9.59</ele><time>2026-4-28T12:38:18Z</time></trkpt>
<trkpt lat="45.3600099" lon="-1.1453563"><ele>8.52</ele><time>2026-4-28T12:38:21Z</time></trkpt>
<trkpt lat="45.3602046" lon="-1.1452978"><ele>5.82</ele><time>2026-4-28T12:38:24Z</time></trkpt>
<trkpt lat="45.3603789" lon="-1.1451736"><ele>7.02</ele><time>2026-4-28T12:38:27Z</time></trkpt>
<trkpt lat="45.3605793" lon="-1.1451640"><ele>9.60</ele><time>2026-4-28T12:38:30Z</time></trkpt>
<trkpt lat="45.3607810" lon="-1.1452871"><ele>11.26</ele><time>2026-4-28T12:38:33Z</time></trkpt>
<trkpt lat="45.3609806" lon="-1.1453250"><ele>8.50</ele><time>2026-4-28T12:38:36Z</time></trkpt>
<trkpt lat="45.3611782" lon="-1.1452750"><ele>8.04</ele><time>2026-4-28T12:38:39Z</time></trkpt>
<trkpt lat="45.3613857" lon="-1.1452280"><ele>7.20</ele><time>2026-4-28T12:38:42Z</time></trkpt>
<trkpt lat="45.3615915" lon="-1.1452335"><ele>8.50</ele><time>2026-4-28T12:38:45Z</time></trkpt>
<trkpt lat="45.3617894" lon="-1.1452366"><ele>9.01</ele><time>2026-4-28T12:38:48Z</time></trkpt>
<trkpt lat="45.3620269" lon="-1.1452377"><ele>7.83</ele><time>2026-4-28T12:38:51Z</time></trkpt>
<trkpt lat="45.3622405" lon="-1.1452085"><ele>7.18</ele><time>2026-4-28T12:38:54Z</time></trkpt>
<trkpt lat="45.3624320" lon="-1.1452075"><ele>8.58</ele><time>2026-4-28T12:38:57Z</time></trkpt>
<trkpt lat="45.3626622" lon="-1.1451811"><ele>7.04</ele><time>2026-4-28T12:39:0Z</time></trkpt>
<trkpt lat="45.3628729" lon="-1.1451960"><ele>9.59</ele><time>2026-4-28T12:39:3Z</time></trkpt>
<trkpt lat="45.3630642" lon="-1.1451988"><ele>9.98</ele><time>2026-4-28T12:39:6Z</time></trkpt>
<trkpt lat="45.3632795" lon="-1.1451365"><ele>9.46</ele><time>2026-4-28T12:39:9Z</time></trkpt>
<trkpt lat="45.3634729" lon="-1.1450021"><ele>7.33</ele><time>2026-4-28T12:39:12Z</time></trkpt>
<trkpt lat="45.3636629" lon="-1.1450833"><ele>7.83</ele><time>2026-4-28T12:39:15Z</time></trkpt>
<trkpt lat="45.3638640" lon="-1.1450865"><ele>8.08</ele><time>2026-4-28T12:39:18Z</time></trkpt>
<trkpt lat="45.3640829" lon="-1.1450692"><ele>9.56</ele><time>2026-4-28T12:39:21Z</time></trkpt>
<trkpt lat="45.3643087" lon="-1.1450630"><ele>12.10</ele><time>2026-4-28T12:39:24Z</time></trkpt>
<trkpt lat="45.3645061" lon="-1.1450299"><ele>13.59</ele><time>2026-4-28T12:39:27Z</time></trkpt>
<trkpt lat="45.3647220" lon="-1.1450256"><ele>16.08</ele><time>2026-4-28T12:39:30Z</time></trkpt>
<trkpt lat="45.3649280" lon="-1.1449566"><ele>14.14</ele><time>2026-4-28T12:39:33Z</time></trkpt>
<trkpt lat="45.3651206" lon="-1.1449256"><ele>16.00</ele><time>2026-4-28T12:39:36Z</time></trkpt>
<trkpt lat="45.3653137" lon="-1.1449289"><ele>16.16</ele><time>2026-4-28T12:39:39Z</time></trkpt>
<trkpt lat="45.3655156" lon="-1.1449200"><ele>15.01</ele><time>2026-4-28T12:39:42Z</time></trkpt>
<trkpt lat="45.3657035" lon="-1.1448521"><ele>12.23</ele><time>2026-4-28T12:39:45Z</time></trkpt>
<trkpt lat="45.3659090" lon="-1.1447905"><ele>9.13</ele><time>2026-4-28T12:39:48Z</time></trkpt>
<trkpt lat="45.3661203" lon="-1.1447421"><ele>13.99</ele><time>2026-4-28T12:39:51Z</time></trkpt>
<trkpt lat="45.3663069" lon="-1.1446300"><ele>15.47</ele><time>2026-4-28T12:39:54Z</time></trkpt>
<trkpt lat="45.3665027" lon="-1.1446533"><ele>17.09</ele><time>2026-4-28T12:39:57Z</time></trkpt>
<trkpt lat="45.3666830" lon="-1.1447769"><ele>13.83</ele><time>2026-4-28T12:40:0Z</time></trkpt>
<trkpt lat="45.3668859" lon="-1.1448230"><ele>12.86</ele><time>2026-4-28T12:40:3Z</time></trkpt>
<trkpt lat="45.3671126" lon="-1.1447885"><ele>12.51</ele><time>2026-4-28T12:40:6Z</time></trkpt>
<trkpt lat="45.3672948" lon="-1.1447637"><ele>10.26</ele><time>2026-4-28T12:40:9Z</time></trkpt>
<trkpt lat="45.3674830" lon="-1.1447306"><ele>9.15</ele><time>2026-4-28T12:40:12Z</time></trkpt>
<trkpt lat="45.3677118" lon="-1.1446910"><ele>7.97</ele><time>2026-4-28T12:40:15Z</time></trkpt>
<trkpt lat="45.3678914" lon="-1.1446558"><ele>7.77</ele><time>2026-4-28T12:40:18Z</time></trkpt>
<trkpt lat="45.3681176" lon="-1.1446346"><ele>9.24</ele><time>2026-4-28T12:40:21Z</time></trkpt>
<trkpt lat="45.3683347" lon="-1.1446323"><ele>8.93</ele><time>2026-4-28T12:40:24Z</time></trkpt>
<trkpt lat="45.3685365" lon="-1.1446260"><ele>9.79</ele><time>2026-4-28T12:40:27Z</time></trkpt>
<trkpt lat="45.3687565" lon="-1.1446202"><ele>11.28</ele><time>2026-4-28T12:40:30Z</time></trkpt>
<trkpt lat="45.3689444" lon="-1.1446283"><ele>11.48</ele><time>2026-4-28T12:40:33Z</time></trkpt>
<trkpt lat="45.3691523" lon="-1.1445977"><ele>10.65</ele><time>2026-4-28T12:40:36Z</time></trkpt>
<trkpt lat="45.3693646" lon="-1.1445930"><ele>9.96</ele><time>2026-4-28T12:40:39Z</time></trkpt>
<trkpt lat="45.3694538" lon="-1.1448449"><ele>12.71</ele><time>2026-4-28T12:40:42Z</time></trkpt>
<trkpt lat="45.3696037" lon="-1.1450260"><ele>11.93</ele><time>2026-4-28T12:40:45Z</time></trkpt>
<trkpt lat="45.3698224" lon="-1.1450348"><ele>11.99</ele><time>2026-4-28T12:40:48Z</time></trkpt>
<trkpt lat="45.3700259" lon="-1.1450305"><ele>15.27</ele><time>2026-4-28T12:40:51Z</time></trkpt>
<trkpt lat="45.3702187" lon="-1.1450269"><ele>15.72</ele><time>2026-4-28T12:40:54Z</time></trkpt>
<trkpt lat="45.3704229" lon="-1.1449877"><ele>15.28</ele><time>2026-4-28T12:40:57Z</time></trkpt>
<trkpt lat="45.3706364" lon="-1.1449345"><ele>13.92</ele><time>2026-4-28T12:41:0Z</time></trkpt>
<trkpt lat="45.3708618" lon="-1.1448579"><ele>14.92</ele><time>2026-4-28T12:41:3Z</time></trkpt>
<trkpt lat="45.3710726" lon="-1.1448097"><ele>17.04</ele><time>2026-4-28T12:41:6Z</time></trkpt>
<trkpt lat="45.3712626" lon="-1.1447769"><ele>18.79</ele><time>2026-4-28T12:41:9Z</time></trkpt>
<trkpt lat="45.3714759" lon="-1.1447466"><ele>20.38</ele><time>2026-4-28T12:41:12Z</time></trkpt>
<trkpt lat="45.3716653" lon="-1.1447438"><ele>20.53</ele><time>2026-4-28T12:41:15Z</time></trkpt>
<trkpt lat="45.3718715" lon="-1.1447687"><ele>22.59</ele><time>2026-4-28T12:41:18Z</time></trkpt>
<trkpt lat="45.3720253" lon="-1.1449058"><ele>21.68</ele><time>2026-4-28T12:41:21Z</time></trkpt>
<trkpt lat="45.3720836" lon="-1.1451574"><ele>15.08</ele><time>2026-4-28T12:41:24Z</time></trkpt>
<trkpt lat="45.3720952" lon="-1.1454263"><ele>12.54</ele><time>2026-4-28T12:41:27Z</time></trkpt>
<trkpt lat="45.3720999" lon="-1.1457748"><ele>13.46</ele><time>2026-4-28T12:41:30Z</time></trkpt>
<trkpt lat="45.3721007" lon="-1.1460673"><ele>12.81</ele><time>2026-4-28T12:41:33Z</time></trkpt>
<trkpt lat="45.3720882" lon="-1.1463876"><ele>14.38</ele><time>2026-4-28T12:41:36Z</time></trkpt>
<trkpt lat="45.3721053" lon="-1.1467030"><ele>15.56</ele><time>2026-4-28T12:41:39Z</time></trkpt>
<trkpt lat="45.3721294" lon="-1.1470254"><ele>16.75</ele><time>2026-4-28T12:41:42Z</time></trkpt>
<trkpt lat="45.3721493" lon="-1.1473185"><ele>16.42</ele><time>2026-4-28T12:41:45Z</time></trkpt>
<trkpt lat="45.3721580" lon="-1.1476239"><ele>16.00</ele><time>2026-4-28T12:41:48Z</time></trkpt>
<trkpt lat="45.3721924" lon="-1.1479121"><ele>16.11</ele><time>2026-4-28T12:41:51Z</time></trkpt>
<trkpt lat="45.3721980" lon="-1.1481762"><ele>15.77</ele><time>2026-4-28T12:41:54Z</time></trkpt>
<trkpt lat="45.3722170" lon="-1.1484638"><ele>16.79</ele><time>2026-4-28T12:41:57Z</time></trkpt>
<trkpt lat="45.3722044" lon="-1.1487406"><ele>14.29</ele><time>2026-4-28T12:42:0Z</time></trkpt>
<trkpt lat="45.3722218" lon="-1.1490225"><ele>11.11</ele><time>2026-4-28T12:42:3Z</time></trkpt>
<trkpt lat="45.3722373" lon="-1.1492999"><ele>11.40</ele><time>2026-4-28T12:42:6Z</time></trkpt>
<trkpt lat="45.3722496" lon="-1.1496010"><ele>12.62</ele><time>2026-4-28T12:42:9Z</time></trkpt>
<trkpt lat="45.3722737" lon="-1.1498843"><ele>13.74</ele><time>2026-4-28T12:42:12Z</time></trkpt>
<trkpt lat="45.3722786" lon="-1.1501404"><ele>12.50</ele><time>2026-4-28T12:42:15Z</time></trkpt>
<trkpt lat="45.3722506" lon="-1.1504571"><ele>11.92</ele><time>2026-4-28T12:42:18Z</time></trkpt>
<trkpt lat="45.3722502" lon="-1.1507342"><ele>12.94</ele><time>2026-4-28T12:42:21Z</time></trkpt>
<trkpt lat="45.3722364" lon="-1.1510184"><ele>11.93</ele><time>2026-4-28T12:42:24Z</time></trkpt>
<trkpt lat="45.3722286" lon="-1.1513027"><ele>11.23</ele><time>2026-4-28T12:42:27Z</time></trkpt>
<trkpt lat="45.3722328" lon="-1.1515815"><ele>11.64</ele><time>2026-4-28T12:42:30Z</time></trkpt>
<trkpt lat="45.3722109" lon="-1.1518868"><ele>13.61</ele><time>2026-4-28T12:42:33Z</time></trkpt>
<trkpt lat="45.3722468" lon="-1.1521536"><ele>13.96</ele><time>2026-4-28T12:42:36Z</time></trkpt>
<trkpt lat="45.3722665" lon="-1.1524245"><ele>14.40</ele><time>2026-4-28T12:42:39Z</time></trkpt>
<trkpt lat="45.3723005" lon="-1.1526784"><ele>15.88</ele><time>2026-4-28T12:42:42Z</time></trkpt>
<trkpt lat="45.3724089" lon="-1.1529240"><ele>15.48</ele><time>2026-4-28T12:42:45Z</time></trkpt>
<trkpt lat="45.3725520" lon="-1.1530913"><ele>15.21</ele><time>2026-4-28T12:42:48Z</time></trkpt>
<trkpt lat="45.3726918" lon="-1.1533291"><ele>14.75</ele><time>2026-4-28T12:42:51Z</time></trkpt>
<trkpt lat="45.3728384" lon="-1.1535207"><ele>17.72</ele><time>2026-4-28T12:42:54Z</time></trkpt>
<trkpt lat="45.3730051" lon="-1.1536311"><ele>19.83</ele><time>2026-4-28T12:42:57Z</time></trkpt>
<trkpt lat="45.3731781" lon="-1.1538376"><ele>17.98</ele><time>2026-4-28T12:43:0Z</time></trkpt>
<trkpt lat="45.3733440" lon="-1.1540102"><ele>15.04</ele><time>2026-4-28T12:43:3Z</time></trkpt>
<trkpt lat="45.3734742" lon="-1.1542242"><ele>12.40</ele><time>2026-4-28T12:43:6Z</time></trkpt>
<trkpt lat="45.3736285" lon="-1.1544055"><ele>13.27</ele><time>2026-4-28T12:43:9Z</time></trkpt>
<trkpt lat="45.3737922" lon="-1.1545716"><ele>14.66</ele><time>2026-4-28T12:43:12Z</time></trkpt>
<trkpt lat="45.3739594" lon="-1.1547314"><ele>13.69</ele><time>2026-4-28T12:43:15Z</time></trkpt>
<trkpt lat="45.3741484" lon="-1.1547886"><ele>15.18</ele><time>2026-4-28T12:43:18Z</time></trkpt>
<trkpt lat="45.3743371" lon="-1.1548590"><ele>16.48</ele><time>2026-4-28T12:43:21Z</time></trkpt>
<trkpt lat="45.3745517" lon="-1.1550290"><ele>15.23</ele><time>2026-4-28T12:43:24Z</time></trkpt>
<trkpt lat="45.3747462" lon="-1.1551378"><ele>18.51</ele><time>2026-4-28T12:43:27Z</time></trkpt>
<trkpt lat="45.3749261" lon="-1.1551789"><ele>17.71</ele><time>2026-4-28T12:43:30Z</time></trkpt>
<trkpt lat="45.3751493" lon="-1.1551986"><ele>14.35</ele><time>2026-4-28T12:43:33Z</time></trkpt>
<trkpt lat="45.3753452" lon="-1.1552673"><ele>14.36</ele><time>2026-4-28T12:43:36Z</time></trkpt>
<trkpt lat="45.3755421" lon="-1.1553435"><ele>13.35</ele><time>2026-4-28T12:43:39Z</time></trkpt>
<trkpt lat="45.3757632" lon="-1.1553802"><ele>12.82</ele><time>2026-4-28T12:43:42Z</time></trkpt>
<trkpt lat="45.3759545" lon="-1.1554036"><ele>13.00</ele><time>2026-4-28T12:43:45Z</time></trkpt>
<trkpt lat="45.3761885" lon="-1.1554188"><ele>13.54</ele><time>2026-4-28T12:43:48Z</time></trkpt>
<trkpt lat="45.3762375" lon="-1.1557068"><ele>13.09</ele><time>2026-4-28T12:43:51Z</time></trkpt>
<trkpt lat="45.3761957" lon="-1.1559899"><ele>12.92</ele><time>2026-4-28T12:43:54Z</time></trkpt>
<trkpt lat="45.3761819" lon="-1.1563115"><ele>13.20</ele><time>2026-4-28T12:43:57Z</time></trkpt>
<trkpt lat="45.3761672" lon="-1.1566251"><ele>13.80</ele><time>2026-4-28T12:44:0Z</time></trkpt>
<trkpt lat="45.3761403" lon="-1.1569255"><ele>12.28</ele><time>2026-4-28T12:44:3Z</time></trkpt>
<trkpt lat="45.3761254" lon="-1.1572266"><ele>11.87</ele><time>2026-4-28T12:44:6Z</time></trkpt>
<trkpt lat="45.3761265" lon="-1.1575357"><ele>13.67</ele><time>2026-4-28T12:44:9Z</time></trkpt>
<trkpt lat="45.3761153" lon="-1.1578232"><ele>13.20</ele><time>2026-4-28T12:44:12Z</time></trkpt>
<trkpt lat="45.3762962" lon="-1.1578445"><ele>15.92</ele><time>2026-4-28T12:44:15Z</time></trkpt>
<trkpt lat="45.3764775" lon="-1.1579456"><ele>12.69</ele><time>2026-4-28T12:44:18Z</time></trkpt>
<trkpt lat="45.3766589" lon="-1.1579831"><ele>12.70</ele><time>2026-4-28T12:44:21Z</time></trkpt>
<trkpt lat="45.3768401" lon="-1.1580118"><ele>13.06</ele><time>2026-4-28T12:44:24Z</time></trkpt>
<trkpt lat="45.3770268" lon="-1.1580320"><ele>14.82</ele><time>2026-4-28T12:44:27Z</time></trkpt>
<trkpt lat="45.3773118" lon="-1.1581057"><ele>16.71</ele><time>2026-4-28T12:44:30Z</time></trkpt>
<trkpt lat="45.3775195" lon="-1.1581094"><ele>16.64</ele><time>2026-4-28T12:44:33Z</time></trkpt>
<trkpt lat="45.3777586" lon="-1.1581192"><ele>17.39</ele><time>2026-4-28T12:44:36Z</time></trkpt>
<trkpt lat="45.3779852" lon="-1.1581503"><ele>17.99</ele><time>2026-4-28T12:44:39Z</time></trkpt>
<trkpt lat="45.3781745" lon="-1.1581036"><ele>17.39</ele><time>2026-4-28T12:44:42Z</time></trkpt>
<trkpt lat="45.3782407" lon="-1.1578578"><ele>17.02</ele><time>2026-4-28T12:44:45Z</time></trkpt>
<trkpt lat="45.3782344" lon="-1.1575995"><ele>16.46</ele><time>2026-4-28T12:44:48Z</time></trkpt>
<trkpt lat="45.3782306" lon="-1.1573384"><ele>19.23</ele><time>2026-4-28T12:44:51Z</time></trkpt>
<trkpt lat="45.3782151" lon="-1.1570797"><ele>14.58</ele><time>2026-4-28T12:44:54Z</time></trkpt>
<trkpt lat="45.3782415" lon="-1.1567766"><ele>13.91</ele><time>2026-4-28T12:44:57Z</time></trkpt>
<trkpt lat="45.3782810" lon="-1.1564929"><ele>11.73</ele><time>2026-4-28T12:45:0Z</time></trkpt>
<trkpt lat="45.3782950" lon="-1.1562016"><ele>10.34</ele><time>2026-4-28T12:45:3Z</time></trkpt>
<trkpt lat="45.3783034" lon="-1.1559428"><ele>11.10</ele><time>2026-4-28T12:45:6Z</time></trkpt>
<trkpt lat="45.3783227" lon="-1.1556629"><ele>9.97</ele><time>2026-4-28T12:45:9Z</time></trkpt>
<trkpt lat="45.3783089" lon="-1.1553987"><ele>10.98</ele><time>2026-4-28T12:45:12Z</time></trkpt>
<trkpt lat="45.3783053" lon="-1.1551299"><ele>11.51</ele><time>2026-4-28T12:45:15Z</time></trkpt>
<trkpt lat="45.3783362" lon="-1.1548520"><ele>12.82</ele><time>2026-4-28T12:45:18Z</time></trkpt>
<trkpt lat="45.3783602" lon="-1.1545837"><ele>12.14</ele><time>2026-4-28T12:45:21Z</time></trkpt>
<trkpt lat="45.3783650" lon="-1.1543254"><ele>11.51</ele><time>2026-4-28T12:45:24Z</time></trkpt>
<trkpt lat="45.3783995" lon="-1.1540726"><ele>9.98</ele><time>2026-4-28T12:45:27Z</time></trkpt>
<trkpt lat="45.3784050" lon="-1.1538020"><ele>10.63</ele><time>2026-4-28T12:45:30Z</time></trkpt>
<trkpt lat="45.3783919" lon="-1.1535292"><ele>11.63</ele><time>2026-4-28T12:45:33Z</time></trkpt>
<trkpt lat="45.3784047" lon="-1.1532687"><ele>12.89</ele><time>2026-4-28T12:45:36Z</time></trkpt>
<trkpt lat="45.3784401" lon="-1.1530150"><ele>14.19</ele><time>2026-4-28T12:45:39Z</time></trkpt>
<trkpt lat="45.3783906" lon="-1.1527594"><ele>14.73</ele><time>2026-4-28T12:45:42Z</time></trkpt>
<trkpt lat="45.3783626" lon="-1.1525020"><ele>14.55</ele><time>2026-4-28T12:45:45Z</time></trkpt>
<trkpt lat="45.3783322" lon="-1.1522384"><ele>13.08</ele><time>2026-4-28T12:45:48Z</time></trkpt>
<trkpt lat="45.3782818" lon="-1.1519717"><ele>11.12</ele><time>2026-4-28T12:45:51Z</time></trkpt>
<trkpt lat="45.3782326" lon="-1.1517233"><ele>11.06</ele><time>2026-4-28T12:45:54Z</time></trkpt>
<trkpt lat="45.3782445" lon="-1.1514538"><ele>9.48</ele><time>2026-4-28T12:45:57Z</time></trkpt>
<trkpt lat="45.3781715" lon="-1.1512134"><ele>9.09</ele><time>2026-4-28T12:46:0Z</time></trkpt>
<trkpt lat="45.3781341" lon="-1.1509437"><ele>13.25</ele><time>2026-4-28T12:46:3Z</time></trkpt>
<trkpt lat="45.3781003" lon="-1.1506896"><ele>13.74</ele><time>2026-4-28T12:46:6Z</time></trkpt>
<trkpt lat="45.3780357" lon="-1.1504171"><ele>11.06</ele><time>2026-4-28T12:46:9Z</time></trkpt>
<trkpt lat="45.3779688" lon="-1.1501732"><ele>10.65</ele><time>2026-4-28T12:46:12Z</time></trkpt>
<trkpt lat="45.3779343" lon="-1.1499065"><ele>11.55</ele><time>2026-4-28T12:46:15Z</time></trkpt>
<trkpt lat="45.3779062" lon="-1.1496373"><ele>11.45</ele><time>2026-4-28T12:46:18Z</time></trkpt>
<trkpt lat="45.3778343" lon="-1.1493960"><ele>11.00</ele><time>2026-4-28T12:46:21Z</time></trkpt>
<trkpt lat="45.3779575" lon="-1.1495924"><ele>15.78</ele><time>2026-4-28T12:46:24Z</time></trkpt>
<trkpt lat="45.3780255" lon="-1.1498552"><ele>15.11</ele><time>2026-4-28T12:46:27Z</time></trkpt>
<trkpt lat="45.3779887" lon="-1.1501265"><ele>13.01</ele><time>2026-4-28T12:46:30Z</time></trkpt>
<trkpt lat="45.3780677" lon="-1.1503773"><ele>14.46</ele><time>2026-4-28T12:46:33Z</time></trkpt>
<trkpt lat="45.3781128" lon="-1.1506266"><ele>16.85</ele><time>2026-4-28T12:46:36Z</time></trkpt>
<trkpt lat="45.3779591" lon="-1.1507813"><ele>13.86</ele><time>2026-4-28T12:46:39Z</time></trkpt>
<trkpt lat="45.3778585" lon="-1.1510036"><ele>12.95</ele><time>2026-4-28T12:46:42Z</time></trkpt>
<trkpt lat="45.3777424" lon="-1.1512026"><ele>10.46</ele><time>2026-4-28T12:46:45Z</time></trkpt>
<trkpt lat="45.3777162" lon="-1.1514625"><ele>10.25</ele><time>2026-4-28T12:46:48Z</time></trkpt>
<trkpt lat="45.3776518" lon="-1.1512150"><ele>12.15</ele><time>2026-4-28T12:46:51Z</time></trkpt>
<trkpt lat="45.3776093" lon="-1.1509608"><ele>10.70</ele><time>2026-4-28T12:46:54Z</time></trkpt>
<trkpt lat="45.3776133" lon="-1.1506928"><ele>11.58</ele><time>2026-4-28T12:46:57Z</time></trkpt>
<trkpt lat="45.3776281" lon="-1.1504343"><ele>14.29</ele><time>2026-4-28T12:47:0Z</time></trkpt>
<trkpt lat="45.3776377" lon="-1.1501465"><ele>13.62</ele><time>2026-4-28T12:47:3Z</time></trkpt>
<trkpt lat="45.3776484" lon="-1.1498887"><ele>14.12</ele><time>2026-4-28T12:47:6Z</time></trkpt>
<trkpt lat="45.3776394" lon="-1.1496036"><ele>13.33</ele><time>2026-4-28T12:47:9Z</time></trkpt>
<trkpt lat="45.3776562" lon="-1.1493268"><ele>11.83</ele><time>2026-4-28T12:47:12Z</time></trkpt>
<trkpt lat="45.3775682" lon="-1.1491006"><ele>14.29</ele><time>2026-4-28T12:47:15Z</time></trkpt>
<trkpt lat="45.3773685" lon="-1.1490555"><ele>15.61</ele><time>2026-4-28T12:47:18Z</time></trkpt>
<trkpt lat="45.3771632" lon="-1.1490435"><ele>15.75</ele><time>2026-4-28T12:47:21Z</time></trkpt>
<trkpt lat="45.3769911" lon="-1.1489568"><ele>15.54</ele><time>2026-4-28T12:47:24Z</time></trkpt>
<trkpt lat="45.3768047" lon="-1.1489468"><ele>16.91</ele><time>2026-4-28T12:47:27Z</time></trkpt>
<trkpt lat="45.3766237" lon="-1.1489618"><ele>17.30</ele><time>2026-4-28T12:47:30Z</time></trkpt>
<trkpt lat="45.3764326" lon="-1.1489444"><ele>16.95</ele><time>2026-4-28T12:47:33Z</time></trkpt>
<trkpt lat="45.3762368" lon="-1.1489425"><ele>15.66</ele><time>2026-4-28T12:47:36Z</time></trkpt>
<trkpt lat="45.3760542" lon="-1.1489678"><ele>19.06</ele><time>2026-4-28T12:47:39Z</time></trkpt>
<trkpt lat="45.3758412" lon="-1.1489827"><ele>15.88</ele><time>2026-4-28T12:47:42Z</time></trkpt>
<trkpt lat="45.3756459" lon="-1.1489742"><ele>18.54</ele><time>2026-4-28T12:47:45Z</time></trkpt>
<trkpt lat="45.3754541" lon="-1.1490446"><ele>21.75</ele><time>2026-4-28T12:47:48Z</time></trkpt>
<trkpt lat="45.3752342" lon="-1.1490153"><ele>19.30</ele><time>2026-4-28T12:47:51Z</time></trkpt>
<trkpt lat="45.3750324" lon="-1.1488939"><ele>17.51</ele><time>2026-4-28T12:47:54Z</time></trkpt>
<trkpt lat="45.3748566" lon="-1.1488283"><ele>14.79</ele><time>2026-4-28T12:47:57Z</time></trkpt>
<trkpt lat="45.3746546" lon="-1.1488651"><ele>14.51</ele><time>2026-4-28T12:48:0Z</time></trkpt>
<trkpt lat="45.3744500" lon="-1.1488195"><ele>19.38</ele><time>2026-4-28T12:48:3Z</time></trkpt>
<trkpt lat="45.3741788" lon="-1.1487229"><ele>19.41</ele><time>2026-4-28T12:48:6Z</time></trkpt>
<trkpt lat="45.3739767" lon="-1.1486249"><ele>16.82</ele><time>2026-4-28T12:48:9Z</time></trkpt>
<trkpt lat="45.3737886" lon="-1.1486104"><ele>12.35</ele><time>2026-4-28T12:48:12Z</time></trkpt>
<trkpt lat="45.3735942" lon="-1.1485369"><ele>15.14</ele><time>2026-4-28T12:48:15Z</time></trkpt>
<trkpt lat="45.3734102" lon="-1.1484998"><ele>17.42</ele><time>2026-4-28T12:48:18Z</time></trkpt>
<trkpt lat="45.3732150" lon="-1.1484983"><ele>19.44</ele><time>2026-4-28T12:48:21Z</time></trkpt>
<trkpt lat="45.3730197" lon="-1.1485098"><ele>19.79</ele><time>2026-4-28T12:48:24Z</time></trkpt>
<trkpt lat="45.3728145" lon="-1.1485269"><ele>24.13</ele><time>2026-4-28T12:48:27Z</time></trkpt>
<trkpt lat="45.3726124" lon="-1.1485529"><ele>19.37</ele><time>2026-4-28T12:48:30Z</time></trkpt>
<trkpt lat="45.3724161" lon="-1.1485669"><ele>18.05</ele><time>2026-4-28T12:48:33Z</time></trkpt>
<trkpt lat="45.3722424" lon="-1.1484785"><ele>16.54</ele><time>2026-4-28T12:48:36Z</time></trkpt>
<trkpt lat="45.3721743" lon="-1.1482322"><ele>11.21</ele><time>2026-4-28T12:48:39Z</time></trkpt>
<trkpt lat="45.3721366" lon="-1.1479715"><ele>7.05</ele><time>2026-4-28T12:48:42Z</time></trkpt>
<trkpt lat="45.3720979" lon="-1.1476711"><ele>4.87</ele><time>2026-4-28T12:48:45Z</time></trkpt>
<trkpt lat="45.3720646" lon="-1.1473733"><ele>4.85</ele><time>2026-4-28T12:48:48Z</time></trkpt>
<trkpt lat="45.3720621" lon="-1.1471034"><ele>5.48</ele><time>2026-4-28T12:48:51Z</time></trkpt>
<trkpt lat="45.3720462" lon="-1.1468150"><ele>5.97</ele><time>2026-4-28T12:48:54Z</time></trkpt>
<trkpt lat="45.3720113" lon="-1.1465071"><ele>6.66</ele><time>2026-4-28T12:48:57Z</time></trkpt>
<trkpt lat="45.3719980" lon="-1.1461922"><ele>6.33</ele><time>2026-4-28T12:49:0Z</time></trkpt>
<trkpt lat="45.3719921" lon="-1.1458598"><ele>5.30</ele><time>2026-4-28T12:49:3Z</time></trkpt>
<trkpt lat="45.3719994" lon="-1.1455795"><ele>3.02</ele><time>2026-4-28T12:49:6Z</time></trkpt>
<trkpt lat="45.3719315" lon="-1.1453247"><ele>4.96</ele><time>2026-4-28T12:49:9Z</time></trkpt>
<trkpt lat="45.3718282" lon="-1.1450417"><ele>11.82</ele><time>2026-4-28T12:49:12Z</time></trkpt>
<trkpt lat="45.3716401" lon="-1.1449268"><ele>13.92</ele><time>2026-4-28T12:49:15Z</time></trkpt>
<trkpt lat="45.3714528" lon="-1.1449201"><ele>16.94</ele><time>2026-4-28T12:49:18Z</time></trkpt>
<trkpt lat="45.3712556" lon="-1.1449783"><ele>16.14</ele><time>2026-4-28T12:49:21Z</time></trkpt>
<trkpt lat="45.3710674" lon="-1.1450198"><ele>16.08</ele><time>2026-4-28T12:49:24Z</time></trkpt>
<trkpt lat="45.3708707" lon="-1.1450728"><ele>16.15</ele><time>2026-4-28T12:49:27Z</time></trkpt>
<trkpt lat="45.3706702" lon="-1.1450312"><ele>17.40</ele><time>2026-4-28T12:49:30Z</time></trkpt>
<trkpt lat="45.3704884" lon="-1.1450999"><ele>17.06</ele><time>2026-4-28T12:49:33Z</time></trkpt>
<trkpt lat="45.3702637" lon="-1.1451860"><ele>15.35</ele><time>2026-4-28T12:49:36Z</time></trkpt>
<trkpt lat="45.3700747" lon="-1.1452089"><ele>15.21</ele><time>2026-4-28T12:49:39Z</time></trkpt>
<trkpt lat="45.3698590" lon="-1.1451788"><ele>17.81</ele><time>2026-4-28T12:49:42Z</time></trkpt>
<trkpt lat="45.3696298" lon="-1.1451189"><ele>16.37</ele><time>2026-4-28T12:49:45Z</time></trkpt>
<trkpt lat="45.3694496" lon="-1.1449934"><ele>14.40</ele><time>2026-4-28T12:49:48Z</time></trkpt>
<trkpt lat="45.3693449" lon="-1.1447664"><ele>16.00</ele><time>2026-4-28T12:49:51Z</time></trkpt>
<trkpt lat="45.3691644" lon="-1.1447149"><ele>16.17</ele><time>2026-4-28T12:49:54Z</time></trkpt>
<trkpt lat="45.3689574" lon="-1.1447826"><ele>16.12</ele><time>2026-4-28T12:49:57Z</time></trkpt>
<trkpt lat="45.3687437" lon="-1.1447950"><ele>15.46</ele><time>2026-4-28T12:50:0Z</time></trkpt>
<trkpt lat="45.3685225" lon="-1.1448166"><ele>14.77</ele><time>2026-4-28T12:50:3Z</time></trkpt>
<trkpt lat="45.3683361" lon="-1.1448019"><ele>14.78</ele><time>2026-4-28T12:50:6Z</time></trkpt>
<trkpt lat="45.3681496" lon="-1.1447923"><ele>14.88</ele><time>2026-4-28T12:50:9Z</time></trkpt>
<trkpt lat="45.3679405" lon="-1.1447945"><ele>15.39</ele><time>2026-4-28T12:50:12Z</time></trkpt>
<trkpt lat="45.3677428" lon="-1.1448003"><ele>15.60</ele><time>2026-4-28T12:50:15Z</time></trkpt>
<trkpt lat="45.3675609" lon="-1.1448555"><ele>17.78</ele><time>2026-4-28T12:50:18Z</time></trkpt>
<trkpt lat="45.3673909" lon="-1.1449775"><ele>19.29</ele><time>2026-4-28T12:50:21Z</time></trkpt>
<trkpt lat="45.3668906" lon="-1.1449532"><ele>16.56</ele><time>2026-4-28T12:50:24Z</time></trkpt>
<trkpt lat="45.3666880" lon="-1.1449935"><ele>17.78</ele><time>2026-4-28T12:50:27Z</time></trkpt>
<trkpt lat="45.3664892" lon="-1.1450024"><ele>21.89</ele><time>2026-4-28T12:50:30Z</time></trkpt>
<trkpt lat="45.3663048" lon="-1.1449539"><ele>25.29</ele><time>2026-4-28T12:50:33Z</time></trkpt>
<trkpt lat="45.3661250" lon="-1.1449704"><ele>19.49</ele><time>2026-4-28T12:50:36Z</time></trkpt>
<trkpt lat="45.3659206" lon="-1.1450634"><ele>16.16</ele><time>2026-4-28T12:50:39Z</time></trkpt>
<trkpt lat="45.3656874" lon="-1.1450592"><ele>16.65</ele><time>2026-4-28T12:50:42Z</time></trkpt>
<trkpt lat="45.3654564" lon="-1.1450724"><ele>16.32</ele><time>2026-4-28T12:50:45Z</time></trkpt>
<trkpt lat="45.3651337" lon="-1.1450935"><ele>13.49</ele><time>2026-4-28T12:50:48Z</time></trkpt>
<trkpt lat="45.3649048" lon="-1.1451019"><ele>13.75</ele><time>2026-4-28T12:50:51Z</time></trkpt>
<trkpt lat="45.3646725" lon="-1.1451223"><ele>13.93</ele><time>2026-4-28T12:50:54Z</time></trkpt>
<trkpt lat="45.3644916" lon="-1.1450974"><ele>13.40</ele><time>2026-4-28T12:50:57Z</time></trkpt>
<trkpt lat="45.3642846" lon="-1.1451099"><ele>13.74</ele><time>2026-4-28T12:51:0Z</time></trkpt>
<trkpt lat="45.3640535" lon="-1.1451390"><ele>12.63</ele><time>2026-4-28T12:51:3Z</time></trkpt>
<trkpt lat="45.3638411" lon="-1.1451517"><ele>14.13</ele><time>2026-4-28T12:51:6Z</time></trkpt>
<trkpt lat="45.3635788" lon="-1.1451846"><ele>21.60</ele><time>2026-4-28T12:51:9Z</time></trkpt>
<trkpt lat="45.3633622" lon="-1.1451483"><ele>22.45</ele><time>2026-4-28T12:51:12Z</time></trkpt>
<trkpt lat="45.3631591" lon="-1.1451908"><ele>14.09</ele><time>2026-4-28T12:51:15Z</time></trkpt>
<trkpt lat="45.3628825" lon="-1.1452597"><ele>13.17</ele><time>2026-4-28T12:51:18Z</time></trkpt>
<trkpt lat="45.3626574" lon="-1.1452952"><ele>14.74</ele><time>2026-4-28T12:51:21Z</time></trkpt>
<trkpt lat="45.3624658" lon="-1.1453085"><ele>14.99</ele><time>2026-4-28T12:51:24Z</time></trkpt>
<trkpt lat="45.3622630" lon="-1.1453266"><ele>15.32</ele><time>2026-4-28T12:51:27Z</time></trkpt>
<trkpt lat="45.3620632" lon="-1.1453318"><ele>15.36</ele><time>2026-4-28T12:51:30Z</time></trkpt>
<trkpt lat="45.3618810" lon="-1.1453422"><ele>15.10</ele><time>2026-4-28T12:51:33Z</time></trkpt>
<trkpt lat="45.3616844" lon="-1.1453324"><ele>14.68</ele><time>2026-4-28T12:51:36Z</time></trkpt>
<trkpt lat="45.3615021" lon="-1.1453524"><ele>14.61</ele><time>2026-4-28T12:51:39Z</time></trkpt>
<trkpt lat="45.3613230" lon="-1.1453995"><ele>16.74</ele><time>2026-4-28T12:51:42Z</time></trkpt>
<trkpt lat="45.3611240" lon="-1.1454174"><ele>18.69</ele><time>2026-4-28T12:51:45Z</time></trkpt>
<trkpt lat="45.3609340" lon="-1.1454498"><ele>19.27</ele><time>2026-4-28T12:51:48Z</time></trkpt>
<trkpt lat="45.3606959" lon="-1.1454303"><ele>20.35</ele><time>2026-4-28T12:51:51Z</time></trkpt>
<trkpt lat="45.3604691" lon="-1.1453653"><ele>21.58</ele><time>2026-4-28T12:51:54Z</time></trkpt>
<trkpt lat="45.3602382" lon="-1.1454506"><ele>20.40</ele><time>2026-4-28T12:51:57Z</time></trkpt>
<trkpt lat="45.3600533" lon="-1.1455008"><ele>18.57</ele><time>2026-4-28T12:52:0Z</time></trkpt>
<trkpt lat="45.3598217" lon="-1.1455409"><ele>18.81</ele><time>2026-4-28T12:52:3Z</time></trkpt>
<trkpt lat="45.3595921" lon="-1.1455357"><ele>17.00</ele><time>2026-4-28T12:52:6Z</time></trkpt>
<trkpt lat="45.3593692" lon="-1.1455280"><ele>15.59</ele><time>2026-4-28T12:52:9Z</time></trkpt>
<trkpt lat="45.3591873" lon="-1.1455501"><ele>16.39</ele><time>2026-4-28T12:52:12Z</time></trkpt>
<trkpt lat="45.3589554" lon="-1.1455705"><ele>16.46</ele><time>2026-4-28T12:52:15Z</time></trkpt>
<trkpt lat="45.3587206" lon="-1.1455730"><ele>15.84</ele><time>2026-4-28T12:52:18Z</time></trkpt>
<trkpt lat="45.3585347" lon="-1.1456159"><ele>17.94</ele><time>2026-4-28T12:52:21Z</time></trkpt>
<trkpt lat="45.3583514" lon="-1.1456469"><ele>18.29</ele><time>2026-4-28T12:52:24Z</time></trkpt>
<trkpt lat="45.3581131" lon="-1.1457105"><ele>21.22</ele><time>2026-4-28T12:52:27Z</time></trkpt>
<trkpt lat="45.3579315" lon="-1.1457422"><ele>21.51</ele><time>2026-4-28T12:52:30Z</time></trkpt>
<trkpt lat="45.3577357" lon="-1.1456548"><ele>21.83</ele><time>2026-4-28T12:52:33Z</time></trkpt>
<trkpt lat="45.3575019" lon="-1.1456019"><ele>22.76</ele><time>2026-4-28T12:52:36Z</time></trkpt>
<trkpt lat="45.3573365" lon="-1.1457142"><ele>23.51</ele><time>2026-4-28T12:52:39Z</time></trkpt>
<trkpt lat="45.3571512" lon="-1.1457878"><ele>22.98</ele><time>2026-4-28T12:52:42Z</time></trkpt>
<trkpt lat="45.3569647" lon="-1.1458052"><ele>22.43</ele><time>2026-4-28T12:52:45Z</time></trkpt>
<trkpt lat="45.3567798" lon="-1.1458131"><ele>21.85</ele><time>2026-4-28T12:52:48Z</time></trkpt>
<trkpt lat="45.3565566" lon="-1.1458052"><ele>21.60</ele><time>2026-4-28T12:52:51Z</time></trkpt>
<trkpt lat="45.3562363" lon="-1.1458187"><ele>22.40</ele><time>2026-4-28T12:52:54Z</time></trkpt>
<trkpt lat="45.3560088" lon="-1.1458620"><ele>21.85</ele><time>2026-4-28T12:52:57Z</time></trkpt>
<trkpt lat="45.3558072" lon="-1.1458992"><ele>21.69</ele><time>2026-4-28T12:53:0Z</time></trkpt>
<trkpt lat="45.3556006" lon="-1.1459226"><ele>22.24</ele><time>2026-4-28T12:53:3Z</time></trkpt>
<trkpt lat="45.3554091" lon="-1.1459243"><ele>23.19</ele><time>2026-4-28T12:53:6Z</time></trkpt>
<trkpt lat="45.3552076" lon="-1.1459182"><ele>22.99</ele><time>2026-4-28T12:53:9Z</time></trkpt>
<trkpt lat="45.3550053" lon="-1.1459414"><ele>22.59</ele><time>2026-4-28T12:53:12Z</time></trkpt>
<trkpt lat="45.3546970" lon="-1.1457512"><ele>18.53</ele><time>2026-4-28T12:53:15Z</time></trkpt>
<trkpt lat="45.3545034" lon="-1.1457998"><ele>19.04</ele><time>2026-4-28T12:53:18Z</time></trkpt>
<trkpt lat="45.3543006" lon="-1.1459196"><ele>16.90</ele><time>2026-4-28T12:53:21Z</time></trkpt>
<trkpt lat="45.3540864" lon="-1.1459466"><ele>16.85</ele><time>2026-4-28T12:53:24Z</time></trkpt>
<trkpt lat="45.3538888" lon="-1.1459797"><ele>16.38</ele><time>2026-4-28T12:53:27Z</time></trkpt>
<trkpt lat="45.3536551" lon="-1.1459000"><ele>16.79</ele><time>2026-4-28T12:53:30Z</time></trkpt>
<trkpt lat="45.3534248" lon="-1.1460235"><ele>19.36</ele><time>2026-4-28T12:53:33Z</time></trkpt>
<trkpt lat="45.3532261" lon="-1.1460754"><ele>21.78</ele><time>2026-4-28T12:53:36Z</time></trkpt>
<trkpt lat="45.3530305" lon="-1.1460826"><ele>21.22</ele><time>2026-4-28T12:53:39Z</time></trkpt>
<trkpt lat="45.3528490" lon="-1.1461175"><ele>22.24</ele><time>2026-4-28T12:53:42Z</time></trkpt>
<trkpt lat="45.3526226" lon="-1.1460689"><ele>26.37</ele><time>2026-4-28T12:53:45Z</time></trkpt>
<trkpt lat="45.3524015" lon="-1.1461463"><ele>25.46</ele><time>2026-4-28T12:53:48Z</time></trkpt>
<trkpt lat="45.3522045" lon="-1.1461652"><ele>24.09</ele><time>2026-4-28T12:53:51Z</time></trkpt>
<trkpt lat="45.3520636" lon="-1.1459975"><ele>22.24</ele><time>2026-4-28T12:53:54Z</time></trkpt>
<trkpt lat="45.3518708" lon="-1.1458569"><ele>19.49</ele><time>2026-4-28T12:53:57Z</time></trkpt>
<trkpt lat="45.3516845" lon="-1.1458718"><ele>17.68</ele><time>2026-4-28T12:54:0Z</time></trkpt>
<trkpt lat="45.3515305" lon="-1.1460044"><ele>16.93</ele><time>2026-4-28T12:54:3Z</time></trkpt>
<trkpt lat="45.3513608" lon="-1.1461846"><ele>11.59</ele><time>2026-4-28T12:54:6Z</time></trkpt>
<trkpt lat="45.3511416" lon="-1.1462658"><ele>13.29</ele><time>2026-4-28T12:54:9Z</time></trkpt>
<trkpt lat="45.3509412" lon="-1.1462509"><ele>14.20</ele><time>2026-4-28T12:54:12Z</time></trkpt>
<trkpt lat="45.3507267" lon="-1.1462903"><ele>14.10</ele><time>2026-4-28T12:54:15Z</time></trkpt>
<trkpt lat="45.3504997" lon="-1.1463338"><ele>13.90</ele><time>2026-4-28T12:54:18Z</time></trkpt>
<trkpt lat="45.3501852" lon="-1.1463677"><ele>13.76</ele><time>2026-4-28T12:54:21Z</time></trkpt>
<trkpt lat="45.3499085" lon="-1.1463337"><ele>15.88</ele><time>2026-4-28T12:54:24Z</time></trkpt>
<trkpt lat="45.3497202" lon="-1.1463458"><ele>17.55</ele><time>2026-4-28T12:54:27Z</time></trkpt>
<trkpt lat="45.3494957" lon="-1.1462995"><ele>13.84</ele><time>2026-4-28T12:54:30Z</time></trkpt>
<trkpt lat="45.3493112" lon="-1.1463284"><ele>16.16</ele><time>2026-4-28T12:54:33Z</time></trkpt>
<trkpt lat="45.3491219" lon="-1.1464032"><ele>15.56</ele><time>2026-4-28T12:54:36Z</time></trkpt>
<trkpt lat="45.3490447" lon="-1.1466572"><ele>17.42</ele><time>2026-4-28T12:54:39Z</time></trkpt>
<trkpt lat="45.3490572" lon="-1.1469400"><ele>18.91</ele><time>2026-4-28T12:54:42Z</time></trkpt>
<trkpt lat="45.3490640" lon="-1.1471965"><ele>18.73</ele><time>2026-4-28T12:54:45Z</time></trkpt>
<trkpt lat="45.3490753" lon="-1.1474701"><ele>17.32</ele><time>2026-4-28T12:54:48Z</time></trkpt>
<trkpt lat="45.3490946" lon="-1.1477682"><ele>14.87</ele><time>2026-4-28T12:54:51Z</time></trkpt>
<trkpt lat="45.3490689" lon="-1.1480750"><ele>15.72</ele><time>2026-4-28T12:54:54Z</time></trkpt>
<trkpt lat="45.3490629" lon="-1.1483352"><ele>17.86</ele><time>2026-4-28T12:54:57Z</time></trkpt>
<trkpt lat="45.3490790" lon="-1.1485943"><ele>18.03</ele><time>2026-4-28T12:55:0Z</time></trkpt>
<trkpt lat="45.3490878" lon="-1.1488686"><ele>21.26</ele><time>2026-4-28T12:55:3Z</time></trkpt>
<trkpt lat="45.3490248" lon="-1.1491337"><ele>21.31</ele><time>2026-4-28T12:55:6Z</time></trkpt>
<trkpt lat="45.3488600" lon="-1.1492709"><ele>21.40</ele><time>2026-4-28T12:55:9Z</time></trkpt>
<trkpt lat="45.3486922" lon="-1.1493883"><ele>16.90</ele><time>2026-4-28T12:55:12Z</time></trkpt>
<trkpt lat="45.3485104" lon="-1.1495022"><ele>16.83</ele><time>2026-4-28T12:55:15Z</time></trkpt>
<trkpt lat="45.3483455" lon="-1.1496906"><ele>18.40</ele><time>2026-4-28T12:55:18Z</time></trkpt>
<trkpt lat="45.3481891" lon="-1.1499312"><ele>21.80</ele><time>2026-4-28T12:55:21Z</time></trkpt>
<trkpt lat="45.3480719" lon="-1.1501430"><ele>20.97</ele><time>2026-4-28T12:55:24Z</time></trkpt>
<trkpt lat="45.3478545" lon="-1.1501498"><ele>18.24</ele><time>2026-4-28T12:55:27Z</time></trkpt>
<trkpt lat="45.3476336" lon="-1.1500963"><ele>16.94</ele><time>2026-4-28T12:55:30Z</time></trkpt>
<trkpt lat="45.3474493" lon="-1.1500445"><ele>15.89</ele><time>2026-4-28T12:55:33Z</time></trkpt>
<trkpt lat="45.3472455" lon="-1.1499644"><ele>15.20</ele><time>2026-4-28T12:55:36Z</time></trkpt>
<trkpt lat="45.3470724" lon="-1.1498542"><ele>12.94</ele><time>2026-4-28T12:55:39Z</time></trkpt>
<trkpt lat="45.3468935" lon="-1.1497761"><ele>16.61</ele><time>2026-4-28T12:55:42Z</time></trkpt>
</trkseg></trk></gpx>